createdAt,value
2023-05-22T00:01:29.957Z,2.60
2023-05-22T00:03:54.101Z,4.10
2023-05-22T00:06:19.600Z,5.50
2023-05-22T00:08:53.917Z,4.40
2023-05-22T00:11:22.856Z,4.80
2023-05-22T00:13:45.825Z,4.20
2023-05-22T00:16:06.599Z,3.70
2023-05-22T00:18:44.028Z,2.60
2023-05-22T00:21:21.090Z,4.30
2023-05-22T00:23:55.338Z,3.70
2023-05-22T00:26:29.564Z,5.10
2023-05-22T00:28:54.258Z,4.60
2023-05-22T00:31:28.436Z,3.10
2023-05-22T00:33:55.784Z,4.20
2023-05-22T00:36:32.770Z,5.90
2023-05-22T00:38:53.603Z,5.20
2023-05-22T00:41:20.257Z,2.80
2023-05-22T00:43:48.886Z,3.50
2023-05-22T00:46:14.712Z,3.60
2023-05-22T00:48:49.791Z,2.70
2023-05-22T00:51:17.180Z,3.10
2023-05-22T00:53:38.397Z,4.30
2023-05-22T00:56:00.911Z,4.90
2023-05-22T00:58:28.871Z,6.30
2023-05-22T01:00:58.367Z,5.40
2023-05-22T01:03:16.573Z,6.20
2023-05-22T01:05:42.655Z,5.60
2023-05-22T01:08:02.396Z,6.10
2023-05-22T01:10:28.897Z,6.00
2023-05-22T01:13:13.000Z,5.30
2023-05-22T01:15:53.335Z,6.70
2023-05-22T01:18:27.624Z,5.80
2023-05-22T01:20:54.111Z,4.60
2023-05-22T01:24:15.209Z,3.60
2023-05-22T01:27:27.159Z,3.40
2023-05-22T01:30:18.642Z,3.50
2023-05-22T01:32:50.058Z,3.00
2023-05-22T01:35:14.881Z,4.00
2023-05-22T01:37:36.272Z,3.60
2023-05-22T01:40:04.101Z,3.00
2023-05-22T01:42:22.530Z,3.10
2023-05-22T01:44:44.340Z,2.20
2023-05-22T01:47:11.723Z,3.30
2023-05-22T01:49:46.546Z,4.40
2023-05-22T01:52:28.919Z,4.20
2023-05-22T01:55:04.910Z,4.40
2023-05-22T01:57:36.318Z,6.30
2023-05-22T01:59:57.743Z,3.60
2023-05-22T02:02:26.616Z,3.20
2023-05-22T02:04:55.582Z,4.70
2023-05-22T02:07:26.306Z,5.00
2023-05-22T02:09:48.442Z,4.50
2023-05-22T02:12:18.153Z,6.50
2023-05-22T02:14:51.453Z,4.70
2023-05-22T02:17:13.465Z,6.10
2023-05-22T02:19:40.623Z,6.00
2023-05-22T02:22:14.724Z,2.90
2023-05-22T02:24:53.152Z,2.90
2023-05-22T02:27:18.031Z,9.50
2023-05-22T02:29:44.695Z,6.40
2023-05-22T02:32:05.343Z,7.20
2023-05-22T02:34:32.847Z,6.00
2023-05-22T02:36:57.882Z,5.50
2023-05-22T02:39:23.987Z,3.90
2023-05-22T02:41:55.445Z,3.30
2023-05-22T02:44:17.334Z,4.60
2023-05-22T02:46:38.974Z,5.50
2023-05-22T02:49:00.209Z,3.90
2023-05-22T02:51:27.760Z,4.70
2023-05-22T02:53:59.481Z,4.90
2023-05-22T02:56:20.399Z,3.50
2023-05-22T02:58:43.455Z,3.10
2023-05-22T03:01:04.570Z,2.60
2023-05-22T03:03:26.287Z,6.10
2023-05-22T03:06:02.709Z,2.40
2023-05-22T03:08:27.412Z,2.60
2023-05-22T03:10:48.847Z,2.50
2023-05-22T03:13:21.646Z,3.10
2023-05-22T03:15:44.358Z,2.90
2023-05-22T03:18:17.347Z,3.10
2023-05-22T03:20:43.019Z,2.40
2023-05-22T03:23:03.327Z,2.90
2023-05-22T03:25:39.329Z,4.60
2023-05-22T03:28:13.090Z,2.90
2023-05-22T03:30:49.368Z,3.60
2023-05-22T03:33:24.931Z,3.60
2023-05-22T03:35:51.593Z,2.50
2023-05-22T03:38:20.058Z,2.50
2023-05-22T03:40:54.072Z,3.20
2023-05-22T03:43:30.141Z,3.50
2023-05-22T03:46:03.691Z,2.30
2023-05-22T03:48:39.836Z,2.80
2023-05-22T03:51:14.896Z,2.10
2023-05-22T03:56:19.503Z,1.80
2023-05-22T03:58:45.536Z,2.30
2023-05-22T04:01:19.246Z,2.70
2023-05-22T04:03:54.139Z,2.10
2023-05-22T04:08:35.411Z,3.20
2023-05-22T04:11:09.479Z,3.80
2023-05-22T04:13:32.068Z,4.60
2023-05-22T04:15:59.184Z,4.90
2023-05-22T04:18:17.754Z,3.70
2023-05-22T04:20:35.214Z,4.30
2023-05-22T04:23:02.892Z,3.90
2023-05-22T04:25:35.527Z,2.70
2023-05-22T04:27:53.168Z,3.40
2023-05-22T04:30:15.470Z,4.00
2023-05-22T04:32:41.988Z,2.10
2023-05-22T04:35:11.140Z,2.40
2023-05-22T04:37:32.862Z,2.60
2023-05-22T04:39:59.408Z,2.00
2023-05-22T04:42:19.719Z,3.00
2023-05-22T04:44:39.449Z,4.20
2023-05-22T04:47:04.290Z,3.70
2023-05-22T04:49:35.374Z,2.60
2023-05-22T04:51:57.267Z,2.90
2023-05-22T04:54:21.650Z,3.50
2023-05-22T04:56:55.431Z,3.00
2023-05-22T04:59:29.339Z,3.50
2023-05-22T05:02:05.180Z,3.20
2023-05-22T05:04:40.859Z,3.90
2023-05-22T05:07:19.917Z,5.00
2023-05-22T05:09:54.497Z,4.40
2023-05-22T05:12:26.724Z,4.50
2023-05-22T05:15:00.386Z,6.30
2023-05-22T05:17:35.840Z,4.40
2023-05-22T05:20:15.721Z,4.50
2023-05-22T05:22:50.770Z,3.80
2023-05-22T05:25:18.908Z,5.20
2023-05-22T05:27:45.172Z,4.90
2023-05-22T05:30:18.284Z,3.60
2023-05-22T05:33:00.287Z,3.40
2023-05-22T05:35:23.064Z,3.30
2023-05-22T05:38:02.808Z,2.70
2023-05-22T05:40:25.503Z,3.10
2023-05-22T05:43:00.430Z,4.60
2023-05-22T05:45:26.595Z,2.70
2023-05-22T05:47:55.699Z,3.00
2023-05-22T05:50:22.140Z,2.50
2023-05-22T05:52:55.773Z,2.60
2023-05-22T05:55:17.911Z,2.70
2023-05-22T05:57:50.028Z,2.90
2023-05-22T06:00:14.420Z,3.60
2023-05-22T06:02:29.128Z,2.20
2023-05-22T06:05:04.140Z,2.40
2023-05-22T06:07:23.064Z,2.30
2023-05-22T06:09:53.722Z,2.70
2023-05-22T06:12:27.653Z,2.40
2023-05-22T06:15:02.793Z,2.80
2023-05-22T06:17:29.792Z,2.00
2023-05-22T06:19:56.436Z,4.60
2023-05-22T06:22:22.381Z,2.00
2023-05-22T06:24:55.854Z,2.50
2023-05-22T06:27:13.580Z,2.20
2023-05-22T06:29:39.414Z,2.20
2023-05-22T06:32:13.790Z,2.50
2023-05-22T06:34:39.715Z,1.70
2023-05-22T06:37:14.404Z,2.10
2023-05-22T06:39:47.981Z,2.00
2023-05-22T06:42:33.575Z,2.50
2023-05-22T06:45:08.345Z,2.10
2023-05-22T06:47:43.010Z,4.70
2023-05-22T06:50:11.684Z,2.30
2023-05-22T06:52:47.257Z,2.70
2023-05-22T06:55:19.516Z,1.80
2023-05-22T06:57:53.469Z,7.60
2023-05-22T07:00:29.411Z,4.60
2023-05-22T07:02:52.646Z,4.70
2023-05-22T07:05:14.347Z,2.90
2023-05-22T07:07:49.062Z,2.40
2023-05-22T07:10:09.563Z,3.00
2023-05-22T07:12:33.205Z,3.30
2023-05-22T07:15:19.207Z,3.20
2023-05-22T07:17:53.660Z,1.90
2023-05-22T07:20:26.796Z,3.10
2023-05-22T07:23:01.586Z,2.40
2023-05-22T07:25:22.811Z,2.30
2023-05-22T07:27:55.131Z,3.10
2023-05-22T07:30:20.539Z,2.80
2023-05-22T07:32:47.595Z,2.60
2023-05-22T07:35:13.864Z,2.20
2023-05-22T07:37:39.899Z,2.20
2023-05-22T07:40:00.944Z,2.40
2023-05-22T07:42:36.153Z,2.50
2023-05-22T07:45:13.386Z,2.50
2023-05-22T07:47:47.108Z,2.10
2023-05-22T07:50:15.018Z,2.80
2023-05-22T07:52:39.888Z,2.20
2023-05-22T07:54:59.699Z,4.60
2023-05-22T07:57:17.779Z,2.20
2023-05-22T07:59:46.534Z,2.20
2023-05-22T08:02:21.725Z,2.50
2023-05-22T08:04:47.552Z,5.80
2023-05-22T08:07:22.374Z,2.80
2023-05-22T08:09:56.914Z,3.10
2023-05-22T08:12:18.534Z,2.70
2023-05-22T08:14:46.940Z,6.00
2023-05-22T08:17:05.517Z,3.30
2023-05-22T08:19:26.009Z,5.70
2023-05-22T08:21:59.184Z,2.90
2023-05-22T08:24:29.534Z,3.20
2023-05-22T08:26:53.954Z,3.90
2023-05-22T08:29:28.285Z,4.30
2023-05-22T08:31:49.654Z,2.80
2023-05-22T08:34:18.911Z,3.90
2023-05-22T08:36:43.644Z,3.60
2023-05-22T08:39:04.829Z,3.40
2023-05-22T08:41:30.503Z,2.30
2023-05-22T08:44:04.140Z,2.30
2023-05-22T08:46:39.139Z,2.50
2023-05-22T08:49:08.380Z,2.50
2023-05-22T08:51:45.444Z,2.90
2023-05-22T08:54:22.204Z,2.90
2023-05-22T08:56:55.771Z,1.80
2023-05-22T08:59:26.345Z,2.20
2023-05-22T09:01:59.191Z,3.60
2023-05-22T09:04:19.717Z,1.70
2023-05-22T09:06:53.655Z,2.30
2023-05-22T09:09:20.937Z,2.50
2023-05-22T09:11:43.327Z,2.40
2023-05-22T09:14:13.478Z,2.20
2023-05-22T09:16:56.134Z,2.70
2023-05-22T09:19:20.212Z,3.00
2023-05-22T09:21:54.523Z,2.50
2023-05-22T09:24:21.641Z,2.50
2023-05-22T09:26:55.848Z,2.20
2023-05-22T09:29:31.361Z,2.50
2023-05-22T09:32:05.869Z,3.10
2023-05-22T09:34:40.299Z,2.10
2023-05-22T09:37:14.903Z,3.20
2023-05-22T09:39:46.206Z,5.50
2023-05-22T09:42:11.301Z,5.50
2023-05-22T09:44:45.931Z,4.40
2023-05-22T09:47:07.984Z,2.60
2023-05-22T09:49:48.300Z,2.40
2023-05-22T09:52:16.290Z,2.40
2023-05-22T09:54:38.389Z,2.80
2023-05-22T09:57:10.135Z,3.20
2023-05-22T09:59:37.803Z,2.20
2023-05-22T10:02:00.334Z,2.10
2023-05-22T10:04:29.313Z,3.10
2023-05-22T10:06:55.317Z,2.20
2023-05-22T10:09:35.658Z,1.90
2023-05-22T10:12:17.465Z,2.20
2023-05-22T10:14:53.332Z,2.40
2023-05-22T10:17:29.880Z,4.40
2023-05-22T10:20:01.125Z,3.00
2023-05-22T10:22:23.807Z,5.80
2023-05-22T10:24:59.036Z,5.00
2023-05-22T10:27:19.796Z,5.40
2023-05-22T10:29:46.552Z,6.70
2023-05-22T10:32:29.289Z,4.10
2023-05-22T10:35:13.915Z,3.60
2023-05-22T10:37:50.908Z,6.30
2023-05-22T10:40:22.266Z,5.30
2023-05-22T10:42:46.572Z,5.30
2023-05-22T10:45:20.506Z,4.00
2023-05-22T10:47:43.995Z,4.90
2023-05-22T10:50:17.630Z,5.80
2023-05-22T10:52:38.928Z,4.00
2023-05-22T10:55:03.803Z,4.60
2023-05-22T10:57:31.004Z,4.40
2023-05-22T11:00:10.195Z,6.10
2023-05-22T11:02:40.090Z,3.90
2023-05-22T11:05:39.740Z,3.90
2023-05-22T11:08:38.134Z,5.20
2023-05-22T11:11:17.505Z,3.90
2023-05-22T11:13:45.053Z,4.00
2023-05-22T11:16:11.778Z,3.50
2023-05-22T11:18:38.184Z,5.00
2023-05-22T11:21:07.275Z,4.70
2023-05-22T11:23:36.816Z,3.10
2023-05-22T11:26:27.242Z,3.70
2023-05-22T11:28:58.919Z,2.80
2023-05-22T11:31:24.383Z,5.20
2023-05-22T11:33:52.897Z,2.60
2023-05-22T11:36:19.906Z,3.50
2023-05-22T11:38:49.016Z,3.40
2023-05-22T11:41:18.823Z,3.50
2023-05-22T11:43:39.538Z,1.90
2023-05-22T11:46:08.671Z,3.80
2023-05-22T11:48:35.349Z,3.60
2023-05-22T11:50:56.813Z,4.40
2023-05-22T11:53:29.640Z,3.00
2023-05-22T11:55:57.513Z,2.70
2023-05-22T11:58:23.855Z,3.40
2023-05-22T12:00:52.275Z,4.10
2023-05-22T12:03:21.734Z,5.90
2023-05-22T12:05:42.017Z,3.20
2023-05-22T12:07:58.353Z,3.20
2023-05-22T12:10:21.408Z,5.50
2023-05-22T12:12:46.949Z,4.90
2023-05-22T12:15:22.088Z,5.00
2023-05-22T12:17:57.912Z,3.00
2023-05-22T12:20:18.849Z,3.30
2023-05-22T12:22:53.256Z,2.70
2023-05-22T12:25:27.902Z,2.60
2023-05-22T12:27:58.497Z,5.00
2023-05-22T12:30:42.748Z,3.60
2023-05-22T12:33:23.489Z,2.80
2023-05-22T12:35:53.259Z,3.60
2023-05-22T12:38:32.527Z,4.60
2023-05-22T12:40:59.491Z,5.00
2023-05-22T12:43:32.541Z,4.30
2023-05-22T12:45:55.287Z,5.00
2023-05-22T12:48:30.564Z,5.90
2023-05-22T12:51:02.517Z,6.30
2023-05-22T12:53:32.714Z,8.00
2023-05-22T12:56:07.140Z,5.70
2023-05-22T12:58:27.170Z,2.70
2023-05-22T13:00:50.219Z,2.80
2023-05-22T13:03:25.538Z,1.50
2023-05-22T13:06:00.737Z,3.80
2023-05-22T13:08:21.452Z,4.70
2023-05-22T13:10:42.429Z,2.40
2023-05-22T13:13:08.734Z,5.90
2023-05-22T13:15:33.707Z,4.30
2023-05-22T13:18:08.663Z,4.20
2023-05-22T13:20:39.276Z,4.10
2023-05-22T13:23:14.135Z,3.70
2023-05-22T13:25:41.611Z,3.20
2023-05-22T13:28:09.376Z,2.80
2023-05-22T13:30:33.373Z,4.80
2023-05-22T13:32:54.809Z,3.40
2023-05-22T13:35:22.003Z,3.60
2023-05-22T13:37:48.478Z,3.50
2023-05-22T13:40:09.454Z,4.80
2023-05-22T13:42:27.630Z,4.80
2023-05-22T13:44:48.121Z,4.00
2023-05-22T13:47:08.764Z,4.50
2023-05-22T13:49:43.524Z,5.70
2023-05-22T13:52:05.102Z,4.40
2023-05-22T13:54:24.017Z,3.30
2023-05-22T13:56:51.204Z,2.70
2023-05-22T13:59:11.663Z,3.50
2023-05-22T14:01:45.814Z,3.00
2023-05-22T14:04:16.152Z,3.40
2023-05-22T14:06:42.085Z,5.50
2023-05-22T14:09:12.825Z,6.60
2023-05-22T14:11:33.141Z,6.90
2023-05-22T14:13:53.262Z,7.40
2023-05-22T14:16:16.845Z,5.90
2023-05-22T14:18:50.743Z,3.60
2023-05-22T14:21:17.139Z,4.40
2023-05-22T14:23:44.478Z,7.70
2023-05-22T14:26:19.169Z,10.10
2023-05-22T14:28:44.917Z,8.30
2023-05-22T14:31:05.388Z,8.90
2023-05-22T14:33:41.165Z,7.30
2023-05-22T14:36:15.349Z,6.40
2023-05-22T14:38:34.968Z,6.30
2023-05-22T14:41:00.834Z,5.40
2023-05-22T14:43:35.073Z,8.10
2023-05-22T14:46:11.510Z,8.60
2023-05-22T14:48:32.364Z,9.90
2023-05-22T14:50:54.753Z,6.60
2023-05-22T14:53:14.926Z,5.00
2023-05-22T14:55:49.416Z,4.70
2023-05-22T14:58:09.781Z,6.30
2023-05-22T15:00:37.522Z,7.10
2023-05-22T15:03:04.459Z,5.30
2023-05-22T15:05:33.880Z,3.80
2023-05-22T15:08:01.411Z,4.40
2023-05-22T15:10:20.722Z,4.60
2023-05-22T15:12:54.506Z,4.70
2023-05-22T15:15:16.841Z,5.00
2023-05-22T15:17:44.788Z,4.50
2023-05-22T15:20:11.040Z,4.90
2023-05-22T15:22:46.471Z,4.90
2023-05-22T15:25:20.700Z,4.80
2023-05-22T15:27:48.209Z,8.40
2023-05-22T15:30:22.232Z,6.10
2023-05-22T15:32:42.586Z,5.80
2023-05-22T15:35:18.213Z,9.10
2023-05-22T15:37:45.979Z,11.70
2023-05-22T15:40:23.619Z,8.80
2023-05-22T15:42:55.119Z,6.30
2023-05-22T15:45:22.140Z,7.00
2023-05-22T15:47:48.818Z,5.50
2023-05-22T15:50:18.252Z,4.00
2023-05-22T15:52:44.649Z,2.90
2023-05-22T15:55:19.921Z,2.40
2023-05-22T15:57:54.654Z,2.60
2023-05-22T16:00:18.582Z,3.30
2023-05-22T16:02:47.413Z,3.80
2023-05-22T16:05:05.701Z,3.70
2023-05-22T16:07:31.455Z,2.50
2023-05-22T16:09:57.563Z,4.50
2023-05-22T16:12:22.966Z,5.00
2023-05-22T16:15:00.501Z,5.40
2023-05-22T16:17:20.138Z,5.90
2023-05-22T16:19:47.520Z,4.20
2023-05-22T16:22:06.587Z,4.70
2023-05-22T16:24:31.603Z,5.60
2023-05-22T16:26:51.841Z,5.80
2023-05-22T16:29:21.601Z,5.50
2023-05-22T16:31:43.088Z,5.40
2023-05-22T16:34:08.399Z,5.70
2023-05-22T16:36:34.458Z,4.60
2023-05-22T16:39:09.119Z,5.00
2023-05-22T16:41:46.221Z,5.60
2023-05-22T16:44:15.408Z,5.10
2023-05-22T16:46:36.273Z,5.10
2023-05-22T16:49:05.222Z,5.40
2023-05-22T16:51:30.541Z,5.60
2023-05-22T16:53:58.152Z,5.30
2023-05-22T16:56:27.241Z,5.90
2023-05-22T16:58:59.456Z,6.90
2023-05-22T17:01:34.676Z,7.10
2023-05-22T17:03:57.517Z,7.10
2023-05-22T17:06:18.303Z,8.60
2023-05-22T17:08:40.380Z,7.00
2023-05-22T17:11:02.993Z,5.90
2023-05-22T17:13:34.443Z,4.60
2023-05-22T17:16:09.314Z,6.30
2023-05-22T17:18:38.820Z,5.80
2023-05-22T17:21:05.497Z,6.20
2023-05-22T17:23:40.077Z,7.70
2023-05-22T17:26:05.989Z,7.00
2023-05-22T17:28:27.179Z,5.80
2023-05-22T17:31:02.774Z,6.70
2023-05-22T17:33:34.872Z,6.10
2023-05-22T17:36:10.863Z,6.10
2023-05-22T17:38:42.512Z,11.00
2023-05-22T17:41:08.971Z,22.60
2023-05-22T17:43:43.311Z,8.70
2023-05-22T17:46:03.900Z,7.20
2023-05-22T17:48:42.029Z,6.40
2023-05-22T17:51:08.497Z,5.40
2023-05-22T17:53:37.805Z,7.30
2023-05-22T17:56:15.125Z,5.40
2023-05-22T17:58:35.005Z,7.70
2023-05-22T18:00:57.008Z,7.10
2023-05-22T18:03:16.951Z,4.80
2023-05-22T18:05:44.612Z,6.90
2023-05-22T18:08:06.108Z,6.40
2023-05-22T18:10:30.681Z,6.10
2023-05-22T18:13:03.948Z,6.30
2023-05-22T18:15:31.573Z,6.60
2023-05-22T18:17:49.022Z,6.40
2023-05-22T18:20:23.364Z,6.80
2023-05-22T18:22:52.260Z,6.30
2023-05-22T18:25:27.436Z,5.40
2023-05-22T18:27:56.648Z,8.70
2023-05-22T18:30:26.709Z,6.30
2023-05-22T18:32:48.306Z,4.80
2023-05-22T18:35:08.773Z,5.40
2023-05-22T18:37:28.934Z,4.10
2023-05-22T18:39:53.177Z,5.90
2023-05-22T18:42:21.252Z,5.90
2023-05-22T18:44:55.881Z,4.10
2023-05-22T18:47:13.409Z,4.90
2023-05-22T18:49:40.345Z,7.50
2023-05-22T18:52:14.529Z,7.70
2023-05-22T18:54:50.682Z,6.90
2023-05-22T18:57:25.263Z,9.00
2023-05-22T18:59:47.264Z,7.80
2023-05-22T19:02:14.473Z,6.10
2023-05-22T19:04:40.070Z,7.40
2023-05-22T19:07:00.261Z,5.60
2023-05-22T19:09:34.739Z,4.80
2023-05-22T19:11:54.894Z,6.10
2023-05-22T19:14:15.979Z,5.60
2023-05-22T19:16:36.379Z,5.60
2023-05-22T19:19:12.481Z,7.90
2023-05-22T19:21:48.350Z,7.10
2023-05-22T19:24:07.872Z,6.70
2023-05-22T19:26:33.957Z,6.70
2023-05-22T19:28:54.611Z,8.30
2023-05-22T19:31:14.132Z,6.70
2023-05-22T19:33:34.862Z,7.70
2023-05-22T19:36:08.771Z,7.00
2023-05-22T19:38:34.115Z,6.50
2023-05-22T19:40:54.464Z,6.30
2023-05-22T19:43:32.354Z,7.10
2023-05-22T19:45:59.342Z,8.70
2023-05-22T19:48:23.123Z,6.20
2023-05-22T19:51:00.268Z,7.10
2023-05-22T19:53:36.132Z,6.30
2023-05-22T19:56:03.590Z,6.00
2023-05-22T19:58:34.575Z,5.70
2023-05-22T20:01:04.445Z,5.30
2023-05-22T20:03:33.206Z,6.90
2023-05-22T20:05:58.044Z,6.00
2023-05-22T20:08:33.006Z,8.00
2023-05-22T20:10:55.177Z,6.30
2023-05-22T20:13:29.999Z,8.30
2023-05-22T20:16:05.316Z,11.40
2023-05-22T20:18:39.974Z,7.50
2023-05-22T20:21:14.250Z,6.90
2023-05-22T20:23:51.080Z,8.00
2023-05-22T20:26:25.658Z,10.30
2023-05-22T20:28:53.976Z,7.00
2023-05-22T20:31:21.220Z,8.80
2023-05-22T20:33:54.480Z,8.50
2023-05-22T20:36:22.322Z,8.20
2023-05-22T20:38:49.588Z,5.90
2023-05-22T20:41:24.013Z,5.50
2023-05-22T20:43:59.739Z,6.20
2023-05-22T20:46:34.091Z,6.20
2023-05-22T20:49:07.536Z,5.00
2023-05-22T20:51:42.258Z,7.80
2023-05-22T20:54:09.251Z,7.40
2023-05-22T20:56:43.640Z,7.40
2023-05-22T20:59:17.306Z,8.70
2023-05-22T21:01:51.930Z,10.90
2023-05-22T21:04:25.071Z,6.60
2023-05-22T21:06:58.518Z,5.70
2023-05-22T21:09:25.268Z,6.60
2023-05-22T21:11:58.698Z,6.40
2023-05-22T21:14:33.012Z,6.20
2023-05-22T21:16:58.912Z,5.10
2023-05-22T21:19:21.748Z,4.40
2023-05-22T21:21:46.350Z,7.10
2023-05-22T21:24:20.848Z,8.30
2023-05-22T21:26:50.520Z,7.70
2023-05-22T21:29:24.932Z,7.40
2023-05-22T21:31:46.900Z,6.80
2023-05-22T21:34:15.430Z,6.30
2023-05-22T21:36:47.506Z,6.60
2023-05-22T21:39:11.420Z,7.10
2023-05-22T21:41:39.225Z,5.80
2023-05-22T21:44:04.492Z,8.70
2023-05-22T21:46:31.909Z,8.30
2023-05-22T21:48:58.431Z,6.70
2023-05-22T21:51:33.777Z,8.10
2023-05-22T21:54:00.168Z,11.10
2023-05-22T21:56:25.816Z,6.20
2023-05-22T21:58:59.156Z,6.60
2023-05-22T22:01:20.422Z,7.00
2023-05-22T22:03:46.393Z,8.50
2023-05-22T22:06:13.230Z,8.30
2023-05-22T22:08:33.746Z,8.10
2023-05-22T22:11:00.437Z,7.90
2023-05-22T22:13:27.622Z,8.00
2023-05-22T22:15:56.470Z,8.20
2023-05-22T22:18:17.685Z,7.60
2023-05-22T22:20:45.616Z,5.30
2023-05-22T22:23:11.939Z,5.70
2023-05-22T22:25:45.220Z,5.70
2023-05-22T22:28:21.070Z,7.20
2023-05-22T22:30:45.678Z,10.60
2023-05-22T22:33:20.906Z,11.80
2023-05-22T22:35:41.628Z,8.20
2023-05-22T22:38:12.359Z,7.20
2023-05-22T22:40:44.465Z,6.50
2023-05-22T22:43:08.338Z,5.30
2023-05-22T22:45:43.282Z,6.40
2023-05-22T22:48:19.832Z,8.40
2023-05-22T22:50:43.397Z,10.60
2023-05-22T22:53:14.057Z,7.30
2023-05-22T22:55:33.742Z,7.60
2023-05-22T22:58:03.091Z,11.70
2023-05-22T23:00:35.298Z,11.30
2023-05-22T23:03:08.232Z,7.40
2023-05-22T23:05:33.494Z,9.60
2023-05-22T23:08:02.984Z,11.00
2023-05-22T23:10:30.573Z,8.50
2023-05-22T23:13:05.130Z,8.80
2023-05-22T23:15:31.071Z,10.80
2023-05-22T23:18:04.013Z,11.80
2023-05-22T23:20:23.443Z,9.10
2023-05-22T23:22:57.053Z,9.90
2023-05-22T23:25:31.383Z,8.00
2023-05-22T23:27:57.635Z,10.30
2023-05-22T23:30:27.792Z,7.70
2023-05-22T23:33:00.824Z,9.60
2023-05-22T23:35:34.546Z,9.90
2023-05-22T23:37:57.732Z,8.00
2023-05-22T23:40:24.324Z,8.30
2023-05-22T23:42:43.989Z,9.20
2023-05-22T23:45:18.191Z,7.90
2023-05-22T23:47:35.090Z,6.90
2023-05-22T23:50:09.981Z,6.20
2023-05-22T23:52:38.763Z,8.40
2023-05-22T23:55:12.260Z,6.10
2023-05-22T23:57:37.339Z,5.50
